Odd, WV (25902)

7:39 PM EDT on July 30, 2016 (GMT -0400)
Flat Top Lake | | Change Station

Elev 2969 ft 37.62 °N, 81.09 °W | Updated 9 minutes ago

Mostly Cloudy
Mostly Cloudy
75.9 °F
Feels Like 77 °F
N
1.1
Wind Variable Wind from ENE

Today
High -- | Low -- °F
--% Chance of Precip.
Yesterday
High -- | Low -- °F
Precip. -- in
Pressure 29.96 in
Visibility 10.0 miles
Clouds Mostly Cloudy 3400 ft
Heat Index 77 °F
Dew Point 70 °F
Humidity 81%
Rainfall 0.00 in
Snow Depth Not available.
6:27 AM 8:34 PM
Waning Crescent, 10% visible
METAR KBKW 302251Z AUTO 25005KT 10SM BKN034 26/18 A3006 RMK AO2 SLP145 T02560183 CHINO RWY19 $
Pressure 29.96 in
Visibility 10.0 miles
Clouds Mostly Cloudy 3400 ft
Heat Index 77 °F
Dew Point 70 °F
Humidity 81%
Rainfall 0.00 in
Snow Depth Not available.
6:27 AM 8:34 PM
Waning Crescent, 10% visible
METAR KBKW 302251Z AUTO 25005KT 10SM BKN034 26/18 A3006 RMK AO2 SLP145 T02560183 CHINO RWY19 $

10-Day Weather Forecast

Almanac

Astronomy

Jul. 30, 2016 Rise Set
Actual Time
Civil Twilight
Nautical Twilight
Astronomical Twilight
Moon
Length of Visible Light
Length of Day
Tomorrow will be .
, % of the Moon is Illuminated

Today's Extremes

State Highs State Lows

Community

WunderPhotos

Upload Photos

1,928,675 photos uploaded!

WunderBlog® & News

Nearby

Air Quality

  Air Quality AQ Index Pollutant
Not available.

Snow Depth

Station Depth Elevation

Earthquake Activity

City Distance Mag. Time & Date
Minimum magnitude displayed is 2.5.

Coastal Water Temperatures

Place Temperature

Stations

Nearby Weather Stations

Station Location Temp. Windchill Dew Point Humidity Wind Precip. Elev Updated Type
                   

Watches & Warnings

There are currently no watches in effect.